Aeroporto :
LOGIN :

Iscrizione | Disclaimer

   EN    FR    IT 

 










Sommario :    VFR   VFR Marginale   IFR   IFR Intensivo   IFR Molto Intensivo
Visibilità : 
Base nubi : 
>= 8 km
>= 3000ft
5 / 8 km
1000 / 3000 ft
1500m / 5 km
500 / 1000 ft
800 / 1500m
200 / 500 ft
< 800m
< 200 ft
Simboli :   Temporali  Nebbia  Neve Forte  Precipitazioni Forti  Vento > 20 kt
SIGMETs :   Varie  Temporali  Ghiacco  Turbolenza  Onda orograficha  Ceneri Vulcaniche






- Altitudine del aeroporto : 230 ft
- Codice IATA : VAR


LBWN - Varna

ULTIMO METAR :
  • 021630Z 08011KT CAVOK 07/M01 Q1014 NOSIG

METARs OBSOLETI :
  • 021600Z 07010KT CAVOK 08/M01 Q1014 NOSIG
  • 021530Z 08011KT CAVOK 08/M01 Q1014 NOSIG
  • 021500Z 09011KT CAVOK 08/00 Q1014 NOSIG
  • 021430Z 11014KT 9999 FEW049 08/M00 Q1014 NOSIG
  • 021400Z 12012KT 9999 FEW049 09/M01 Q1014 NOSIG

TAF TAF LBWN
Valido dal 02 a 12 ore il 03 a 12 ore UTC


021100Z 0212/0312 08016KT 9999 SCT030 BKN040
BECMG 0218/0220 VRB04KT
TEMPO 0302/0306 4000 BR
BECMG 0308/0310 14010KT



MetMap, La meteo Aeronautica in un colpo d'occhio ! - Copyright ORBIFLY Dicembre 2007 - Disclaimer

ORBIFLY MET'MAP TEAM :

Programmazione e sviluppo : Alexandra Zaïnal
Concezione : Baudouin d'Aumeries
Aiuto per la programmazione : Marc-Olivier Méhu
Supporto tecnico e logistico : Manuel Goepfert
Aiuto per la traduzione : Arnaldo La Scala

Contatto : metmap@orbifly.com




FONTI E CREDITI :

   NOAA